Time;durP1;ratioP1;P1;durP2;ratioP2;P2;SDS_P1;SDS_P2;PMS_P1;PMS_P2;Temp;Humidity;BMP_temperature;BMP_pressure;BME280_temperature;BME280_humidity;BME280_pressure;Samples;Min_cycle;Max_cycle;Signal;HPM_P1;HPM_P2
2023/10/04 00:02:53;;;;;;;29.25;1.58;;;;;;;17.70;60.92;100280.81;4402635;32;34465;-82
2023/10/04 00:05:27;;;;;;;9.85;1.10;;;;;;;17.61;61.18;100285.84;4412167;32;33703;-83
2023/10/04 00:08:01;;;;;;;0.82;0.82;;;;;;;17.62;61.16;100274.19;4407597;32;33079;-82
2023/10/04 00:10:29;;;;;;;0.65;0.62;;;;;;;17.58;61.33;100270.00;4427645;32;33867;-81
2023/10/04 00:13:03;;;;;;;6.20;0.88;;;;;;;17.76;60.89;100267.97;4413258;32;33125;-81
2023/10/04 00:15:33;;;;;;;3.43;1.47;;;;;;;17.63;61.07;100267.87;4407798;32;34776;-82
2023/10/04 00:18:02;;;;;;;1.15;1.05;;;;;;;17.88;60.04;100264.47;4414542;32;32970;-81
2023/10/04 00:20:33;;;;;;;0.45;0.45;;;;;;;17.86;60.41;100276.25;4456929;32;32997;-81
2023/10/04 00:23:05;;;;;;;0.40;0.40;;;;;;;18.21;59.22;100279.22;4461399;32;33968;-81
2023/10/04 00:25:38;;;;;;;1.45;1.15;;;;;;;17.90;60.22;100275.94;4475653;32;34608;-81
2023/10/04 00:28:07;;;;;;;1.02;1.00;;;;;;;17.97;59.95;100283.53;4463248;32;32740;-81
2023/10/04 00:30:35;;;;;;;0.73;0.73;;;;;;;17.84;60.60;100278.13;4448559;32;33644;-81
2023/10/04 00:33:05;;;;;;;0.45;0.45;;;;;;;17.97;60.33;100286.22;4455095;32;33306;-81
2023/10/04 00:35:33;;;;;;;0.85;0.85;;;;;;;17.81;60.48;100283.69;4461999;32;32820;-80
2023/10/04 00:38:01;;;;;;;0.47;0.40;;;;;;;17.64;61.29;100290.09;4472759;32;33621;-81
2023/10/04 00:40:33;;;;;;;1.37;0.90;;;;;;;17.64;61.41;100296.28;4461286;32;33806;-81
2023/10/04 00:43:01;;;;;;;;;;;;;;;17.65;61.35;100291.81;4462491;32;33560;-81
2023/10/04 00:45:34;;;;;;;13.10;2.00;;;;;;;17.61;61.69;100300.97;4472781;32;34245;-81
2023/10/04 00:48:14;;;;;;;0.20;0.20;;;;;;;17.70;61.47;100303.03;4455354;32;33357;-81
2023/10/04 00:50:41;;;;;;;0.45;0.45;;;;;;;17.64;61.16;100296.28;4472746;32;33783;-80
2023/10/04 00:53:16;;;;;;;1.67;0.90;;;;;;;18.08;59.69;100305.91;4461418;32;33370;-80
2023/10/04 00:55:46;;;;;;;1.27;1.12;;;;;;;17.78;60.42;100307.94;4450175;32;33357;-80
2023/10/04 00:58:19;;;;;;;;;;;;;;;18.06;59.70;100313.16;4464199;32;33397;-80
2023/10/04 01:00:47;;;;;;;2.40;0.43;;;;;;;18.17;59.42;100315.13;4461017;32;34348;-80
2023/10/04 01:03:15;;;;;;;0.35;0.35;;;;;;;17.74;60.74;100303.75;4475011;32;33690;-80
2023/10/04 01:05:47;;;;;;;0.35;0.35;;;;;;;17.60;61.28;100313.47;4460759;32;32511;-81
2023/10/04 01:08:22;;;;;;;2.60;1.45;;;;;;;17.55;61.53;100307.56;4447031;32;34462;-81
2023/10/04 01:10:52;;;;;;;0.62;0.43;;;;;;;17.57;61.37;100304.81;4463005;32;34240;-81
2023/10/04 01:13:26;;;;;;;1.95;1.10;;;;;;;17.57;61.53;100305.69;4467367;32;34504;-81
2023/10/04 01:15:55;;;;;;;1.48;0.93;;;;;;;17.59;61.30;100303.75;4473733;32;34663;-81
2023/10/04 01:18:30;;;;;;;0.35;0.25;;;;;;;17.61;61.22;100301.87;4461608;32;32435;-81
2023/10/04 01:21:01;;;;;;;0.20;0.20;;;;;;;17.59;61.45;100297.56;4451084;32;34325;-81
2023/10/04 01:23:29;;;;;;;2.20;1.37;;;;;;;17.55;61.47;100310.25;4462798;32;34305;-81
2023/10/04 01:25:57;;;;;;;0.80;0.80;;;;;;;17.62;61.11;100316.06;4464164;32;32819;-81
2023/10/04 01:28:30;;;;;;;0.45;0.32;;;;;;;17.43;61.67;100320.88;4473493;32;32999;-81
2023/10/04 01:31:01;;;;;;;0.60;0.60;;;;;;;17.61;61.06;100315.22;4478536;32;33442;-81
2023/10/04 01:33:34;;;;;;;0.75;0.75;;;;;;;17.43;61.66;100323.53;4465194;31;33799;-81
2023/10/04 01:36:03;;;;;;;0.90;0.90;;;;;;;17.60;61.11;100320.62;4475991;32;33623;-81
2023/10/04 01:38:32;;;;;;;0.25;0.25;;;;;;;17.80;60.23;100316.69;4476771;32;32429;-80
2023/10/04 01:41:00;;;;;;;1.27;0.85;;;;;;;17.63;60.84;100318.63;4461114;32;34331;-80
2023/10/04 01:43:28;;;;;;;4.95;0.65;;;;;;;17.47;61.46;100331.25;4450260;32;33191;-81
2023/10/04 01:45:59;;;;;;;0.73;0.73;;;;;;;17.40;61.73;100332.59;4473661;32;33600;-80
2023/10/04 01:48:30;;;;;;;3.08;1.08;;;;;;;17.32;62.32;100324.19;4464004;32;33555;-81
2023/10/04 01:51:02;;;;;;;1.37;1.27;;;;;;;17.38;62.62;100329.19;4465985;32;34788;-80
2023/10/04 01:53:33;;;;;;;0.68;0.68;;;;;;;17.37;62.44;100332.78;4464295;32;32738;-81
2023/10/04 01:56:03;;;;;;;0.57;0.57;;;;;;;17.36;62.95;100339.06;4460015;32;34339;-80
2023/10/04 01:58:31;;;;;;;0.70;0.55;;;;;;;17.57;62.31;100336.88;4478217;32;34836;-80
2023/10/04 02:01:01;;;;;;;2.22;0.62;;;;;;;17.41;62.96;100352.97;4462479;32;33491;-81
2023/10/04 02:03:30;;;;;;;1.25;1.02;;;;;;;17.36;63.89;100347.94;4463356;32;33966;-81
2023/10/04 02:05:59;;;;;;;1.62;1.52;;;;;;;17.63;62.81;100342.66;4462652;32;33622;-81
2023/10/04 02:08:28;;;;;;;2.05;0.57;;;;;;;17.38;65.41;100348.72;4477175;32;33316;-81
2023/10/04 02:10:57;;;;;;;1.75;1.17;;;;;;;17.65;66.12;100351.41;4463325;32;33858;-81
2023/10/04 02:13:28;;;;;;;0.98;0.90;;;;;;;18.05;65.01;100342.69;4476412;32;33551;-81
2023/10/04 02:16:11;;;;;;;0.60;0.50;;;;;;;18.44;63.88;100349.84;4465025;32;31952;-81
2023/10/04 02:18:42;;;;;;;0.28;0.22;;;;;;;18.68;62.47;100345.53;4470756;32;32268;-81
2023/10/04 02:21:10;;;;;;;0.98;0.88;;;;;;;18.94;60.47;100342.84;4474321;32;33800;-81
2023/10/04 02:23:40;;;;;;;1.10;0.65;;;;;;;19.26;59.44;100337.06;4461978;32;33223;-81
2023/10/04 02:26:08;;;;;;;0.77;0.65;;;;;;;19.72;58.09;100357.88;4461004;32;33824;-81
2023/10/04 02:28:36;;;;;;;1.77;0.80;;;;;;;19.48;58.65;100353.31;4477334;32;34585;-81
2023/10/04 02:31:04;;;;;;;0.22;0.22;;;;;;;19.89;57.14;100357.47;4461614;32;33285;-81
2023/10/04 02:33:38;;;;;;;0.57;0.57;;;;;;;19.98;56.78;100358.63;4460475;32;33038;-81
2023/10/04 02:36:13;;;;;;;3.60;0.95;;;;;;;20.00;56.82;100364.75;4460004;32;34566;-81
2023/10/04 02:39:06;;;;;;;0.30;0.30;;;;;;;19.86;57.25;100377.34;4451679;32;33067;-81
2023/10/04 02:41:34;;;;;;;;;;;;;;;20.00;57.13;100378.16;4473664;32;34576;-81
2023/10/04 02:44:02;;;;;;;1.12;0.25;;;;;;;20.20;56.57;100386.44;4476566;32;34306;-81
2023/10/04 02:46:31;;;;;;;0.65;0.40;;;;;;;20.21;56.66;100396.19;4465576;32;32797;-81
2023/10/04 02:49:01;;;;;;;0.15;0.15;;;;;;;20.49;55.75;100388.78;4465441;32;35088;-82
2023/10/04 02:51:29;;;;;;;0.55;0.55;;;;;;;20.48;55.81;100396.94;4475914;32;33853;-81
2023/10/04 02:53:57;;;;;;;1.02;1.00;;;;;;;20.54;55.46;100401.84;4462408;32;32472;-81
2023/10/04 02:56:25;;;;;;;1.55;0.65;;;;;;;20.50;55.53;100401.22;4462642;32;33470;-81
2023/10/04 02:58:52;;;;;;;1.00;0.77;;;;;;;20.46;55.83;100399.69;4462938;32;33085;-80
2023/10/04 03:01:22;;;;;;;0.30;0.30;;;;;;;20.71;55.08;100415.69;4476826;32;33451;-81
2023/10/04 03:03:52;;;;;;;2.50;1.03;;;;;;;20.39;55.58;100404.69;4476569;32;33563;-81
2023/10/04 03:06:23;;;;;;;0.37;0.30;;;;;;;20.27;55.73;100413.66;4475528;32;34547;-81
2023/10/04 03:08:52;;;;;;;0.03;0.03;;;;;;;20.57;54.79;100421.25;4476401;32;33423;-81
2023/10/04 03:11:20;;;;;;;0.55;0.28;;;;;;;20.58;54.61;100416.75;4477389;32;32721;-81
2023/10/04 03:13:47;;;;;;;1.42;0.37;;;;;;;20.83;54.06;100413.03;4473396;32;34987;-81
2023/10/04 03:16:16;;;;;;;0.10;0.10;;;;;;;20.35;55.23;100426.47;4459102;32;32775;-82
2023/10/04 03:18:48;;;;;;;;;;;;;;;20.38;55.19;100431.62;4462955;32;33289;-81
2023/10/04 03:21:20;;;;;;;0.35;0.35;;;;;;;20.41;55.07;100431.38;4475848;32;34183;-82
2023/10/04 03:23:49;;;;;;;0.15;0.15;;;;;;;20.30;55.14;100439.38;4473438;32;33962;-81
2023/10/04 03:26:18;;;;;;;0.22;0.22;;;;;;;20.47;54.87;100444.37;4449319;32;34616;-81
2023/10/04 03:28:46;;;;;;;0.30;0.30;;;;;;;20.67;54.25;100441.06;4461606;32;32735;-81
2023/10/04 03:31:14;;;;;;;0.00;0.00;;;;;;;20.25;55.37;100438.88;4475085;32;33580;-82
2023/10/04 03:33:44;;;;;;;0.60;0.60;;;;;;;20.35;55.10;100453.28;4474672;32;34028;-82
2023/10/04 03:36:17;;;;;;;0.65;0.40;;;;;;;20.43;54.59;100445.56;4449017;32;32941;-82
2023/10/04 03:38:49;;;;;;;0.00;0.00;;;;;;;20.00;55.96;100445.19;4450576;32;32806;-82
2023/10/04 03:41:18;;;;;;;0.00;0.00;;;;;;;20.60;54.36;100450.53;4474064;32;33893;-82
2023/10/04 03:43:47;;;;;;;0.95;0.43;;;;;;;20.57;54.20;100449.91;4472890;32;33601;-82
2023/10/04 03:46:18;;;;;;;0.65;0.52;;;;;;;20.69;53.75;100459.72;4473736;32;34470;-81
2023/10/04 03:48:49;;;;;;;0.73;0.73;;;;;;;20.32;54.97;100456.19;4462862;32;32986;-82
2023/10/04 03:51:20;;;;;;;0.00;0.00;;;;;;;20.61;53.84;100468.34;4463089;32;34096;-81
2023/10/04 03:53:50;;;;;;;0.57;0.43;;;;;;;20.66;53.46;100468.88;4473492;32;34424;-82
2023/10/04 03:56:21;;;;;;;5.47;0.85;;;;;;;20.59;53.39;100472.97;4464567;32;32868;-81
2023/10/04 03:58:50;;;;;;;0.15;0.15;;;;;;;20.46;53.51;100473.00;4474498;32;32995;-81
2023/10/04 04:01:20;;;;;;;0.10;0.10;;;;;;;20.42;53.60;100467.97;4462475;32;33996;-82
2023/10/04 04:03:50;;;;;;;4.28;0.20;;;;;;;20.24;53.89;100469.34;4474362;32;34676;-83
2023/10/04 04:06:18;;;;;;;0.00;0.00;;;;;;;20.12;53.94;100497.87;4475256;32;33803;-81
2023/10/04 04:08:49;;;;;;;0.93;0.25;;;;;;;20.19;53.38;100502.69;4460756;32;32705;-81
2023/10/04 04:11:18;;;;;;;0.00;0.00;;;;;;;20.23;53.16;100502.50;4458717;32;32852;-81
2023/10/04 04:13:46;;;;;;;0.00;0.00;;;;;;;20.45;52.34;100506.16;4463151;32;34249;-81
2023/10/04 04:16:17;;;;;;;1.62;1.05;;;;;;;20.26;52.59;100504.94;4475692;32;32491;-82
2023/10/04 04:18:54;;;;;;;0.13;0.10;;;;;;;20.24;52.29;100501.50;4451779;32;33420;-81
2023/10/04 04:21:25;;;;;;;4.03;0.62;;;;;;;20.50;51.36;100513.88;4461991;32;33184;-81
2023/10/04 04:23:53;;;;;;;0.22;0.20;;;;;;;20.40;51.88;100508.31;4475525;32;34815;-82
2023/10/04 04:26:23;;;;;;;0.25;0.25;;;;;;;20.44;51.67;100506.28;4460968;32;34371;-82
2023/10/04 04:28:51;;;;;;;0.50;0.40;;;;;;;20.35;51.74;100505.13;4459529;32;33496;-81
2023/10/04 04:31:20;;;;;;;5.47;0.15;;;;;;;19.84;53.66;100504.38;4472307;32;35414;-82
2023/10/04 04:33:48;;;;;;;1.45;0.28;;;;;;;20.30;52.16;100506.41;4458622;32;34808;-81
2023/10/04 04:36:27;;;;;;;1.15;1.08;;;;;;;20.08;52.91;100526.75;4459812;32;34798;-81
2023/10/04 04:38:56;;;;;;;0.32;0.32;;;;;;;20.01;52.74;100517.44;4448444;32;33407;-80
2023/10/04 04:41:29;;;;;;;0.10;0.10;;;;;;;20.19;52.05;100534.88;4458298;32;32765;-80
2023/10/04 04:43:59;;;;;;;0.98;0.75;;;;;;;20.27;51.68;100533.44;4470619;32;33985;-80
2023/10/04 04:46:31;;;;;;;3.40;0.20;;;;;;;19.94;52.10;100526.88;4459025;32;33524;-82
2023/10/04 04:49:00;;;;;;;3.62;1.00;;;;;;;19.83;52.63;100550.91;4451209;32;33366;-80
2023/10/04 04:51:28;;;;;;;0.17;0.17;;;;;;;19.89;52.57;100545.09;4471744;32;32892;-80
2023/10/04 04:53:56;;;;;;;1.75;0.95;;;;;;;20.07;52.15;100538.44;4472388;32;34454;-81
2023/10/04 04:56:24;;;;;;;0.10;0.00;;;;;;;20.28;51.54;100541.41;4474230;32;33610;-80
2023/10/04 04:58:55;;;;;;;0.08;0.00;;;;;;;20.20;51.70;100541.94;4473714;32;32456;-82
2023/10/04 05:01:26;;;;;;;0.13;0.10;;;;;;;20.10;52.37;100548.09;4462760;32;32728;-81
2023/10/04 05:04:06;;;;;;;0.03;0.03;;;;;;;20.15;52.21;100557.50;4451203;32;33579;-81
2023/10/04 05:06:36;;;;;;;0.00;0.00;;;;;;;20.30;51.52;100554.69;4470299;32;34037;-81
2023/10/04 05:09:10;;;;;;;0.10;0.10;;;;;;;20.10;51.78;100564.19;4463555;31;32964;-81
2023/10/04 05:11:38;;;;;;;;;;;;;;;20.04;52.21;100568.16;4459972;32;34540;-81
2023/10/04 05:14:06;;;;;;;0.98;0.03;;;;;;;19.89;52.81;100583.50;4473931;32;34216;-81
2023/10/04 05:16:34;;;;;;;0.00;0.00;;;;;;;19.75;52.90;100577.34;4463270;32;34124;-81
2023/10/04 05:19:09;;;;;;;0.00;0.00;;;;;;;20.04;51.91;100581.56;4447284;32;32521;-81
2023/10/04 05:21:37;;;;;;;0.10;0.10;;;;;;;19.80;52.44;100588.66;4461373;32;33092;-81
2023/10/04 05:24:05;;;;;;;0.50;0.50;;;;;;;19.43;53.60;100594.66;4450582;32;33252;-81
2023/10/04 05:26:35;;;;;;;1.05;0.65;;;;;;;19.55;53.01;100592.97;4476413;32;33621;-82
2023/10/04 05:29:03;;;;;;;0.37;0.22;;;;;;;20.01;51.89;100600.53;4464368;32;33323;-81
2023/10/04 05:31:31;;;;;;;0.45;0.45;;;;;;;19.95;52.09;100611.69;4459909;32;34507;-81
2023/10/04 05:33:59;;;;;;;0.22;0.22;;;;;;;19.72;52.31;100607.06;4456501;32;32044;-81
2023/10/04 05:36:28;;;;;;;2.47;0.35;;;;;;;19.78;52.48;100614.66;4458873;32;33616;-81
2023/10/04 05:39:01;;;;;;;0.30;0.30;;;;;;;19.96;51.49;100621.44;4473785;32;32643;-81
2023/10/04 05:41:31;;;;;;;0.00;0.00;;;;;;;19.84;51.38;100638.34;4464396;32;33539;-81
2023/10/04 05:43:59;;;;;;;0.30;0.30;;;;;;;19.46;52.58;100652.50;4473572;32;34529;-81
2023/10/04 05:46:28;;;;;;;0.00;0.00;;;;;;;19.23;52.53;100637.13;4463459;32;32736;-82
2023/10/04 05:48:55;;;;;;;0.32;0.32;;;;;;;19.74;50.63;100646.19;4472008;32;33143;-81
2023/10/04 05:51:24;;;;;;;3.00;0.57;;;;;;;19.26;50.49;100647.63;4450669;32;32977;-81
2023/10/04 05:53:53;;;;;;;0.43;0.43;;;;;;;19.33;50.25;100651.63;4448153;32;33440;-81
2023/10/04 05:56:21;;;;;;;0.68;0.68;;;;;;;19.42;49.53;100643.00;4474391;32;34491;-81
2023/10/04 05:58:49;;;;;;;0.10;0.10;;;;;;;19.17;49.13;100663.34;4457424;32;33287;-81
2023/10/04 06:01:19;;;;;;;0.98;0.52;;;;;;;19.32;47.98;100647.22;4451149;32;34234;-81
2023/10/04 06:03:47;;;;;;;0.17;0.17;;;;;;;19.32;47.24;100665.97;4465083;32;35005;-81
2023/10/04 06:06:15;;;;;;;0.15;0.15;;;;;;;19.56;46.75;100676.84;4451559;32;36023;-81
2023/10/04 06:08:45;;;;;;;0.03;0.03;;;;;;;19.60;46.54;100684.63;4447721;32;33060;-80
2023/10/04 06:11:17;;;;;;;0.10;0.10;;;;;;;19.47;46.58;100693.56;4457901;32;34110;-82
2023/10/04 06:13:51;;;;;;;0.25;0.25;;;;;;;19.22;47.43;100699.66;4474826;32;32664;-81
2023/10/04 06:16:19;;;;;;;0.00;0.00;;;;;;;19.10;48.03;100702.19;4465722;32;33020;-81
2023/10/04 06:18:51;;;;;;;0.00;0.00;;;;;;;19.65;45.80;100712.00;4474968;32;33279;-81
2023/10/04 06:21:21;;;;;;;0.28;0.28;;;;;;;19.67;45.17;100728.81;4474040;31;32887;-81
2023/10/04 06:23:50;;;;;;;0.10;0.08;;;;;;;18.98;47.11;100735.09;4462543;32;34715;-81
2023/10/04 06:26:18;;;;;;;0.55;0.20;;;;;;;19.39;45.69;100728.87;4459772;32;33668;-81
2023/10/04 06:28:47;;;;;;;0.70;0.10;;;;;;;19.45;45.76;100731.16;4459109;32;33725;-81
2023/10/04 06:31:14;;;;;;;0.00;0.00;;;;;;;19.69;45.21;100745.63;4460122;32;32745;-81
2023/10/04 06:33:42;;;;;;;0.00;0.00;;;;;;;19.83;44.65;100744.72;4446192;32;32481;-81
2023/10/04 06:36:15;;;;;;;0.00;0.00;;;;;;;19.60;45.55;100745.37;4470912;32;33247;-81
2023/10/04 06:38:42;;;;;;;0.08;0.08;;;;;;;19.59;44.94;100746.31;4473290;32;34109;-81
2023/10/04 06:41:11;;;;;;;0.55;0.30;;;;;;;19.91;44.36;100752.25;4459482;32;33399;-81
2023/10/04 06:43:38;;;;;;;0.08;0.08;;;;;;;19.45;45.49;100749.91;4450631;32;33315;-82
2023/10/04 06:46:07;;;;;;;1.05;0.85;;;;;;;19.54;45.09;100757.34;4448084;32;33192;-81
2023/10/04 06:48:46;;;;;;;0.28;0.28;;;;;;;19.83;44.91;100749.22;4462824;32;33764;-81
2023/10/04 06:51:14;;;;;;;0.57;0.30;;;;;;;20.11;43.96;100754.41;4453589;32;33781;-81
2023/10/04 06:53:43;;;;;;;0.00;0.00;;;;;;;19.57;45.23;100750.94;4464248;32;33378;-80
2023/10/04 06:56:12;;;;;;;1.67;0.25;;;;;;;19.42;45.62;100748.28;4459927;32;33875;-81
2023/10/04 06:58:39;;;;;;;0.00;0.00;;;;;;;19.70;44.96;100743.81;4472753;32;32657;-81
2023/10/04 07:01:08;;;;;;;1.02;0.40;;;;;;;19.87;44.44;100745.37;4446574;32;34124;-81
2023/10/04 07:03:35;;;;;;;0.22;0.20;;;;;;;19.78;44.92;100754.03;4475268;32;34795;-81
2023/10/04 07:06:03;;;;;;;0.30;0.30;;;;;;;19.85;44.85;100747.31;4461398;32;33032;-81
2023/10/04 07:08:35;;;;;;;1.95;0.35;;;;;;;19.63;45.03;100751.41;4461372;32;32612;-81
2023/10/04 07:11:04;;;;;;;1.12;0.13;;;;;;;19.87;44.13;100756.94;4449853;32;34264;-81
2023/10/04 07:13:32;;;;;;;0.20;0.20;;;;;;;19.93;44.12;100761.03;4460214;32;33328;-81
2023/10/04 07:16:04;;;;;;;0.22;0.22;;;;;;;19.74;45.01;100766.75;4473763;32;33360;-81
2023/10/04 07:18:32;;;;;;;0.50;0.22;;;;;;;19.36;46.16;100769.25;4473953;32;33416;-81
2023/10/04 07:21:00;;;;;;;0.15;0.15;;;;;;;19.73;44.96;100769.53;4461986;32;33401;-81
2023/10/04 07:23:28;;;;;;;0.35;0.22;;;;;;;19.86;44.70;100767.78;4479048;32;34003;-81
2023/10/04 07:26:09;;;;;;;1.23;0.47;;;;;;;19.32;46.05;100754.31;4463469;32;32971;-81
2023/10/04 07:28:39;;;;;;;1.55;0.10;;;;;;;19.11;46.79;100745.87;4463126;32;33239;-81
2023/10/04 07:31:07;;;;;;;0.30;0.30;;;;;;;19.11;46.96;100740.53;4460471;32;33660;-81
2023/10/04 07:33:35;;;;;;;0.30;0.30;;;;;;;19.34;46.10;100758.66;4471604;32;33187;-81
2023/10/04 07:36:03;;;;;;;0.00;0.00;;;;;;;19.48;45.91;100781.00;4462300;32;33827;-81
2023/10/04 07:38:31;;;;;;;0.08;0.08;;;;;;;19.74;45.66;100803.41;4459807;32;32950;-81
2023/10/04 07:40:59;;;;;;;0.05;0.05;;;;;;;19.67;45.74;100825.25;4471083;32;33660;-81
2023/10/04 07:43:27;;;;;;;0.10;0.10;;;;;;;19.80;46.20;100824.47;4461007;32;34832;-81
2023/10/04 07:45:58;;;;;;;0.10;0.10;;;;;;;19.79;45.90;100812.87;4459004;32;33839;-81
2023/10/04 07:48:26;;;;;;;0.25;0.25;;;;;;;20.11;45.32;100801.81;4451869;32;33004;-81
2023/10/04 07:50:54;;;;;;;0.00;0.00;;;;;;;20.16;44.96;100791.66;4476416;32;34064;-82
2023/10/04 07:53:22;;;;;;;0.00;0.00;;;;;;;20.30;44.39;100796.06;4461487;32;34686;-82
2023/10/04 07:55:50;;;;;;;0.65;0.65;;;;;;;20.02;45.68;100800.63;4472590;32;35027;-81
2023/10/04 07:58:17;;;;;;;0.00;0.00;;;;;;;20.22;45.09;100810.00;4460338;32;32416;-81
2023/10/04 08:00:45;;;;;;;0.00;0.00;;;;;;;20.41;44.69;100801.53;4473549;32;33853;-82
2023/10/04 08:03:14;;;;;;;0.03;0.03;;;;;;;20.09;45.31;100807.31;4451290;32;32915;-80
2023/10/04 08:05:42;;;;;;;0.00;0.00;;;;;;;20.08;45.16;100802.91;4471869;32;33965;-80
2023/10/04 08:08:10;;;;;;;0.30;0.30;;;;;;;20.41;44.76;100812.28;4473116;32;32301;-80
2023/10/04 08:10:39;;;;;;;0.00;0.00;;;;;;;19.99;45.85;100808.00;4469711;32;34608;-81
2023/10/04 08:13:07;;;;;;;0.10;0.10;;;;;;;19.86;46.43;100816.03;4459325;32;34079;-81
2023/10/04 08:15:38;;;;;;;18.33;1.00;;;;;;;20.15;45.16;100819.44;4472471;32;34157;-82
2023/10/04 08:18:07;;;;;;;0.00;0.00;;;;;;;19.56;46.37;100822.41;4459568;32;33381;-81
2023/10/04 08:20:36;;;;;;;0.00;0.00;;;;;;;20.18;45.22;100830.81;4458394;32;32974;-80
2023/10/04 08:23:05;;;;;;;0.50;0.50;;;;;;;20.37;44.83;100818.84;4473513;32;34846;-80
2023/10/04 08:25:34;;;;;;;0.00;0.00;;;;;;;20.14;46.18;100823.09;4477594;32;33210;-80
2023/10/04 08:28:05;;;;;;;1.33;1.00;;;;;;;19.65;46.92;100829.87;4471543;32;33627;-80
2023/10/04 08:30:33;;;;;;;6.37;1.55;;;;;;;19.71;46.86;100827.75;4459807;32;33856;-80
2023/10/04 08:33:03;;;;;;;0.00;0.00;;;;;;;20.25;45.71;100836.63;4474216;32;34790;-81
2023/10/04 08:35:36;;;;;;;0.47;0.45;;;;;;;20.00;46.54;100841.91;4459623;32;33649;-80
2023/10/04 08:38:05;;;;;;;0.13;0.13;;;;;;;20.38;44.93;100842.00;4470744;32;34234;-81
2023/10/04 08:40:38;;;;;;;0.10;0.10;;;;;;;20.01;46.56;100827.53;4459885;32;33949;-80
2023/10/04 08:43:08;;;;;;;0.17;0.17;;;;;;;20.10;45.83;100838.50;4461035;32;33557;-80
2023/10/04 08:45:36;;;;;;;0.10;0.10;;;;;;;20.15;45.81;100839.06;4472912;32;34492;-81
2023/10/04 08:48:05;;;;;;;0.00;0.00;;;;;;;20.11;46.55;100842.03;4462599;32;33098;-80
2023/10/04 08:50:34;;;;;;;0.20;0.20;;;;;;;20.27;46.94;100849.91;4474401;32;33972;-80
2023/10/04 08:53:08;;;;;;;0.05;0.03;;;;;;;19.86;46.99;100858.91;4473648;32;33170;-80
2023/10/04 08:55:41;;;;;;;0.00;0.00;;;;;;;20.34;45.73;100856.59;4473755;32;35269;-80
2023/10/04 08:58:10;;;;;;;0.00;0.00;;;;;;;20.29;45.70;100858.72;4457990;32;33371;-80
2023/10/04 09:00:43;;;;;;;0.20;0.20;;;;;;;20.30;45.61;100855.94;4445352;32;34024;-80
2023/10/04 09:03:13;;;;;;;0.52;0.50;;;;;;;20.29;45.64;100848.00;4445086;32;33020;-80
2023/10/04 09:05:46;;;;;;;0.00;0.00;;;;;;;20.41;45.52;100844.47;4446079;32;33627;-80
2023/10/04 09:08:16;;;;;;;0.30;0.15;;;;;;;20.41;45.52;100842.69;4471691;32;34018;-80
2023/10/04 09:10:44;;;;;;;0.32;0.28;;;;;;;20.07;46.67;100851.25;4472807;32;33511;-81
2023/10/04 09:13:13;;;;;;;0.05;0.05;;;;;;;20.17;45.72;100838.94;4467613;32;32025;-81
2023/10/04 09:15:41;;;;;;;0.00;0.00;;;;;;;20.26;46.01;100842.84;4468774;32;33891;-80
2023/10/04 09:18:10;;;;;;;4.12;0.47;;;;;;;20.82;44.44;100847.03;4445396;32;32621;-80
2023/10/04 09:20:38;;;;;;;0.20;0.20;;;;;;;20.95;44.48;100844.34;4459938;32;32924;-80
2023/10/04 09:23:19;;;;;;;0.00;0.00;;;;;;;20.64;44.64;100841.09;4457179;32;33583;-80
2023/10/04 09:25:48;;;;;;;1.20;0.33;;;;;;;21.01;43.63;100840.37;4458583;32;34033;-80
2023/10/04 09:28:16;;;;;;;1.37;0.80;;;;;;;21.14;44.06;100852.81;4470863;32;33696;-80
2023/10/04 09:30:44;;;;;;;0.00;0.00;;;;;;;21.54;42.47;100858.03;4471318;32;33942;-80
2023/10/04 09:33:24;;;;;;;0.00;0.00;;;;;;;21.42;42.68;100858.94;4459438;32;34709;-81
2023/10/04 09:35:52;;;;;;;0.22;0.10;;;;;;;20.96;43.97;100856.78;4451150;32;32858;-80
2023/10/04 09:38:21;;;;;;;0.08;0.08;;;;;;;21.08;43.34;100857.75;4457795;32;32827;-81
2023/10/04 09:40:53;;;;;;;0.00;0.00;;;;;;;21.44;42.31;100852.47;4458801;32;33033;-81
2023/10/04 09:43:37;;;;;;;;;;;;;;;21.53;42.29;100853.63;4461265;32;34883;-81
2023/10/04 09:46:07;;;;;;;0.03;0.03;;;;;;;21.70;42.57;100858.62;4448822;32;32800;-81
2023/10/04 09:48:43;;;;;;;0.32;0.32;;;;;;;22.15;41.70;100856.22;4463331;32;32259;-81
2023/10/04 09:51:12;;;;;;;0.30;0.30;;;;;;;22.40;40.34;100865.97;4463451;32;33979;-81
2023/10/04 09:53:41;;;;;;;35.83;1.27;;;;;;;22.68;39.85;100862.00;4451044;32;33235;-81
2023/10/04 09:56:13;;;;;;;0.88;0.35;;;;;;;22.89;39.36;100872.13;4467759;32;35007;-81
2023/10/04 09:58:51;;;;;;;0.00;0.00;;;;;;;22.77;40.41;100873.06;4472167;32;34170;-81
2023/10/04 10:01:23;;;;;;;0.57;0.57;;;;;;;23.22;38.51;100868.63;4476098;32;33420;-81
2023/10/04 10:03:59;;;;;;;0.00;0.00;;;;;;;22.63;39.61;100877.66;4463069;32;32668;-81
2023/10/04 10:06:32;;;;;;;0.00;0.00;;;;;;;23.21;38.71;100861.50;4453266;32;33744;-81
2023/10/04 10:09:04;;;;;;;0.68;0.20;;;;;;;22.49;40.48;100870.66;4461184;32;33371;-81
2023/10/04 10:11:32;;;;;;;0.55;0.55;;;;;;;22.91;38.97;100875.56;4472051;32;33930;-81
2023/10/04 10:14:03;;;;;;;0.30;0.22;;;;;;;22.90;39.18;100872.00;4450060;32;34187;-80
2023/10/04 10:16:33;;;;;;;0.63;0.13;;;;;;;23.22;38.28;100866.78;4471342;32;34697;-81
2023/10/04 10:19:03;;;;;;;0.10;0.10;;;;;;;23.49;37.37;100870.91;4470732;32;32988;-81
2023/10/04 10:22:10;;;;;;;0.80;0.55;;;;;;;23.69;37.26;100875.59;4472541;32;33989;-81
2023/10/04 10:24:57;;;;;;;0.00;0.00;;;;;;;23.51;37.71;100879.75;4475777;32;33923;-81
2023/10/04 10:27:28;;;;;;;0.10;0.10;;;;;;;22.83;38.80;100877.94;4472010;32;32936;-81
2023/10/04 10:30:06;;;;;;;;;;;;;;;23.05;37.99;100871.78;4470730;32;33382;-81
2023/10/04 10:32:34;;;;;;;0.08;0.05;;;;;;;22.57;38.99;100870.06;4471152;32;36521;-81
2023/10/04 10:35:06;;;;;;;0.03;0.03;;;;;;;22.96;37.91;100881.44;4451971;32;33122;-81
2023/10/04 10:37:35;;;;;;;0.00;0.00;;;;;;;22.28;39.41;100871.44;4470597;32;33080;-81
2023/10/04 10:40:07;;;;;;;0.00;0.00;;;;;;;22.57;38.91;100877.28;4476477;32;32497;-81
2023/10/04 10:43:07;;;;;;;0.25;0.10;;;;;;;23.12;37.68;100873.88;4459477;32;33512;-81
2023/10/04 10:45:36;;;;;;;0.00;0.00;;;;;;;23.25;36.63;100868.34;4475074;32;33948;-81
2023/10/04 10:48:08;;;;;;;0.45;0.45;;;;;;;23.35;35.88;100865.78;4459584;32;33184;-81
2023/10/04 10:50:39;;;;;;;0.10;0.10;;;;;;;23.32;36.62;100868.75;4453012;32;34059;-80
2023/10/04 10:53:10;;;;;;;1.48;0.20;;;;;;;23.22;36.28;100869.47;4472066;32;33424;-81
2023/10/04 10:55:40;;;;;;;0.47;0.43;;;;;;;22.47;37.86;100867.22;4477562;32;33999;-81
2023/10/04 10:58:08;;;;;;;0.80;0.32;;;;;;;22.73;37.47;100864.34;4477428;32;34350;-81
2023/10/04 11:00:35;;;;;;;0.00;0.00;;;;;;;22.53;37.89;100865.88;4477423;32;34184;-81
2023/10/04 11:03:10;;;;;;;0.00;0.00;;;;;;;22.43;37.47;100862.19;4478562;32;33893;-81
2023/10/04 11:05:38;;;;;;;0.15;0.15;;;;;;;22.09;38.93;100862.03;4455033;32;33140;-80
2023/10/04 11:08:12;;;;;;;0.00;0.00;;;;;;;22.48;37.57;100854.63;4457722;32;33887;-81
2023/10/04 11:10:41;;;;;;;0.00;0.00;;;;;;;22.62;36.92;100853.56;4475558;32;33208;-81
2023/10/04 11:13:14;;;;;;;0.88;0.45;;;;;;;23.23;36.40;100854.16;4454706;32;33013;-81
2023/10/04 11:15:43;;;;;;;0.37;0.20;;;;;;;22.86;36.62;100856.19;4472010;32;33975;-81
2023/10/04 11:18:14;;;;;;;0.30;0.30;;;;;;;23.42;35.88;100842.75;4474215;32;33549;-81
2023/10/04 11:20:42;;;;;;;0.07;0.07;;;;;;;23.49;35.22;100843.97;4460453;32;33005;-81
2023/10/04 11:23:10;;;;;;;0.00;0.00;;;;;;;23.79;34.66;100850.56;4451031;32;33126;-81
2023/10/04 11:25:38;;;;;;;0.22;0.22;;;;;;;23.61;34.57;100853.75;4472324;32;34088;-80
2023/10/04 11:28:07;;;;;;;0.08;0.08;;;;;;;23.85;34.53;100855.44;4449500;32;32759;-81
2023/10/04 11:30:35;;;;;;;0.00;0.00;;;;;;;23.96;33.96;100841.91;4478513;32;32962;-81
2023/10/04 11:33:03;;;;;;;0.43;0.40;;;;;;;23.98;33.73;100840.81;4450649;32;33034;-81
2023/10/04 11:35:34;;;;;;;0.00;0.00;;;;;;;23.85;33.71;100839.28;4463010;32;32941;-81
2023/10/04 11:38:12;;;;;;;0.10;0.10;;;;;;;23.80;33.28;100839.66;4472925;32;34122;-81
2023/10/04 11:40:40;;;;;;;0.25;0.25;;;;;;;23.88;33.50;100841.69;4473311;32;33226;-81
2023/10/04 11:43:08;;;;;;;2.80;1.05;;;;;;;23.27;34.51;100833.22;4462904;32;33476;-81